Badan Meteorologi, Klimatologi, dan Geofisika

CUACA TERKINI BANDARA KUALANAMU

Senin, 3 Agustus 2020 11:08 UTC

Cuaca : Berawan

Angin : (dari) Selatan, 13.0 km/jam

Jarak Pandang : >=10 km

Suhu : 27 °C

Waktu Pengamatan : 18:00 WIB

Selengkapnya>>>

DATA METEOROLOGI KUALANAMU

Data Metar Terbaru

WIMM 031100Z 18007KT 9999 SCT017 27/24 Q1004 NOSIG=

WIMM 031030Z 17009KT 9999 SCT017 28/23 Q1004 NOSIG=

WIMM 031000Z 09010KT 9999 SCT017 31/26 Q1004 NOSIG=

WIMM 030930Z 05011KT 9999 SCT017 32/26 Q1003 NOSIG=

WIMM 030900Z 04010KT 9999 SCT017 32/25 Q1003 NOSIG=

WIMM 030830Z 04009KT 9999 SCT017 32/25 Q1003 NOSIG=

TAF WIMM 031100Z 0312/0412 VRB05KT 3000 BR SCT017 BECMG 0401/0403 9999 NSW BECMG 0404/0406 05010KT =

Selengkapnya>>>

Data TAF Terbaru

TAF WIMM 031100Z 0312/0412 VRB05KT 3000 BR SCT017 BECMG 0401/0403 9999 NSW BECMG 0404/0406 05010KT =

Selengkapnya>>>

CITRA SATELIT

Enhanced
Citra Satelit
Cloud Type
Citra Satelit IR
Hotspot
Citra Satelit
Sebaran Asap
Citra Satelit